createdAt,value
2023-11-20T00:01:52.099Z,6.56
2023-11-20T00:04:19.435Z,6.52
2023-11-20T00:06:46.487Z,6.42
2023-11-20T00:09:14.025Z,6.52
2023-11-20T00:11:40.518Z,6.43
2023-11-20T00:14:07.918Z,6.42
2023-11-20T00:16:34.874Z,6.47
2023-11-20T00:19:01.483Z,6.60
2023-11-20T00:21:28.102Z,6.73
2023-11-20T00:23:54.693Z,6.82
2023-11-20T00:26:21.253Z,6.91
2023-11-20T00:28:47.753Z,6.97
2023-11-20T00:31:17.396Z,7.00
2023-11-20T00:33:44.014Z,6.97
2023-11-20T00:36:10.864Z,6.98
2023-11-20T00:38:37.433Z,7.04
2023-11-20T00:41:04.245Z,7.03
2023-11-20T00:43:32.303Z,6.97
2023-11-20T00:45:58.948Z,6.94
2023-11-20T00:48:25.518Z,6.94
2023-11-20T00:50:52.071Z,6.99
2023-11-20T00:53:18.628Z,6.94
2023-11-20T00:55:45.112Z,7.03
2023-11-20T00:58:11.639Z,7.08
2023-11-20T01:00:39.146Z,7.12
2023-11-20T01:03:05.807Z,7.09
2023-11-20T01:05:32.409Z,7.08
2023-11-20T01:07:58.965Z,7.11
2023-11-20T01:10:25.472Z,7.07
2023-11-20T01:12:52.082Z,7.01
2023-11-20T01:15:18.638Z,7.08
2023-11-20T01:17:45.328Z,7.03
2023-11-20T01:20:12.261Z,6.94
2023-11-20T01:22:39.288Z,6.87
2023-11-20T01:25:06.148Z,6.89
2023-11-20T01:27:33.129Z,6.86
2023-11-20T01:29:59.716Z,6.84
2023-11-20T01:32:26.301Z,6.67
2023-11-20T01:34:52.841Z,6.63
2023-11-20T01:37:19.422Z,6.59
2023-11-20T01:39:46.028Z,6.58
2023-11-20T01:42:12.630Z,6.61
2023-11-20T01:44:39.105Z,6.59
2023-11-20T01:47:06.478Z,6.53
2023-11-20T01:49:33.255Z,6.33
2023-11-20T01:51:59.933Z,6.39
2023-11-20T01:54:28.373Z,6.41
2023-11-20T01:56:54.984Z,6.40
2023-11-20T01:59:21.866Z,6.41
2023-11-20T02:01:48.356Z,6.33
2023-11-20T02:04:15.299Z,6.31
2023-11-20T02:06:42.328Z,6.21
2023-11-20T02:09:08.902Z,6.14
2023-11-20T02:11:35.644Z,6.20
2023-11-20T02:14:02.260Z,6.20
2023-11-20T02:16:28.768Z,6.15
2023-11-20T02:18:55.451Z,6.12
2023-11-20T02:21:22.006Z,5.97
2023-11-20T02:23:48.525Z,5.98
2023-11-20T02:26:32.060Z,6.06
2023-11-20T02:29:10.712Z,5.99
2023-11-20T02:31:37.286Z,5.93
2023-11-20T02:34:04.203Z,5.93
2023-11-20T02:36:30.818Z,5.88
2023-11-20T02:38:58.062Z,5.80
2023-11-20T02:41:25.097Z,5.77
2023-11-20T02:43:52.129Z,5.77
2023-11-20T02:46:18.714Z,5.77
2023-11-20T02:48:45.879Z,5.82
2023-11-20T02:51:12.454Z,5.66
2023-11-20T02:53:39.262Z,5.50
2023-11-20T02:56:06.342Z,5.49
2023-11-20T02:58:32.873Z,5.47
2023-11-20T03:00:59.602Z,5.40
2023-11-20T03:03:26.163Z,5.52
2023-11-20T03:05:52.666Z,5.60
2023-11-20T03:08:19.235Z,5.64
2023-11-20T03:10:45.764Z,5.61
2023-11-20T03:13:13.779Z,5.67
2023-11-20T03:15:41.599Z,5.78
2023-11-20T03:18:08.793Z,5.75
2023-11-20T03:20:35.429Z,5.60
2023-11-20T03:23:03.541Z,5.51
2023-11-20T03:25:30.049Z,5.51
2023-11-20T03:27:56.672Z,5.53
2023-11-20T03:30:25.757Z,5.49
2023-11-20T03:32:52.409Z,5.52
2023-11-20T03:35:19.000Z,5.51
2023-11-20T03:37:45.678Z,5.49
2023-11-20T03:40:13.028Z,5.54
2023-11-20T03:42:39.676Z,5.59
2023-11-20T03:45:06.887Z,5.54
2023-11-20T03:47:33.635Z,5.55
2023-11-20T03:50:00.485Z,5.39
2023-11-20T03:52:27.645Z,5.44
2023-11-20T03:54:54.382Z,5.50
2023-11-20T03:57:21.258Z,5.52
2023-11-20T03:59:47.873Z,5.48
2023-11-20T04:02:17.289Z,5.50
2023-11-20T04:04:45.145Z,5.48
2023-11-20T04:07:12.817Z,5.51
2023-11-20T04:09:39.347Z,5.40
2023-11-20T04:12:06.311Z,5.33
2023-11-20T04:14:33.049Z,5.43
2023-11-20T04:16:59.622Z,5.49
2023-11-20T04:19:26.512Z,5.49
2023-11-20T04:21:53.699Z,5.43
2023-11-20T04:24:20.623Z,5.34
2023-11-20T04:26:47.211Z,5.31
2023-11-20T04:29:14.633Z,5.43
2023-11-20T04:31:41.589Z,5.52
2023-11-20T04:34:08.253Z,5.61
2023-11-20T04:36:34.833Z,5.73
2023-11-20T04:39:01.832Z,5.68
2023-11-20T04:41:28.441Z,5.68
2023-11-20T04:43:54.942Z,5.76
2023-11-20T04:46:21.504Z,5.79
2023-11-20T04:48:48.071Z,5.80
2023-11-20T04:51:21.835Z,5.76
2023-11-20T04:53:48.361Z,5.72
2023-11-20T04:56:14.893Z,5.64
2023-11-20T04:58:41.545Z,5.53
2023-11-20T05:01:08.708Z,5.63
2023-11-20T05:03:37.023Z,5.58
2023-11-20T05:06:04.335Z,5.55
2023-11-20T05:08:30.859Z,5.52
2023-11-20T05:10:57.363Z,5.47
2023-11-20T05:13:23.856Z,5.34
2023-11-20T05:15:50.392Z,5.50
2023-11-20T05:18:16.927Z,5.50
2023-11-20T05:20:43.505Z,5.51
2023-11-20T05:23:10.076Z,5.54
2023-11-20T05:25:36.647Z,5.51
2023-11-20T05:28:03.559Z,5.33
2023-11-20T05:30:30.108Z,5.39
2023-11-20T05:33:00.007Z,5.49
2023-11-20T05:35:27.050Z,5.64
2023-11-20T05:37:53.585Z,5.61
2023-11-20T05:40:20.191Z,5.77
2023-11-20T05:42:46.746Z,5.74
2023-11-20T05:45:13.354Z,5.62
2023-11-20T05:47:39.884Z,5.57
2023-11-20T05:50:06.825Z,5.45
2023-11-20T05:52:34.048Z,5.27
2023-11-20T05:55:01.069Z,5.09
2023-11-20T05:57:28.516Z,5.06
2023-11-20T05:59:55.062Z,4.91
2023-11-20T06:02:21.587Z,4.98
2023-11-20T06:04:48.146Z,4.87
2023-11-20T06:07:16.115Z,4.92
2023-11-20T06:09:42.804Z,4.89
2023-11-20T06:12:09.420Z,4.93
2023-11-20T06:14:36.172Z,4.94
2023-11-20T06:17:02.756Z,4.92
2023-11-20T06:19:29.424Z,4.95
2023-11-20T06:21:56.319Z,4.99
2023-11-20T06:24:22.913Z,5.03
2023-11-20T06:26:49.567Z,5.10
2023-11-20T06:29:16.240Z,5.20
2023-11-20T06:31:42.949Z,5.30
2023-11-20T06:34:10.648Z,5.20
2023-11-20T06:36:38.419Z,5.26
2023-11-20T06:39:07.160Z,5.24
2023-11-20T06:41:33.685Z,5.29
2023-11-20T06:44:01.877Z,5.39
2023-11-20T06:46:28.561Z,5.21
2023-11-20T06:48:55.305Z,5.34
2023-11-20T06:51:21.919Z,5.08
2023-11-20T06:53:49.217Z,5.25
2023-11-20T06:56:18.253Z,5.20
2023-11-20T06:58:45.241Z,5.09
2023-11-20T07:01:13.244Z,5.20
2023-11-20T07:03:44.008Z,5.27
2023-11-20T07:06:15.854Z,5.22
2023-11-20T07:08:43.533Z,5.29
2023-11-20T07:11:10.330Z,5.41
2023-11-20T07:13:36.912Z,5.52
2023-11-20T07:16:04.245Z,5.55
2023-11-20T07:18:31.091Z,5.68
2023-11-20T07:20:57.679Z,5.81
2023-11-20T07:23:24.278Z,5.88
2023-11-20T07:25:54.373Z,6.00
2023-11-20T07:28:22.238Z,6.11
2023-11-20T07:30:49.249Z,6.35
2023-11-20T07:33:16.875Z,6.55
2023-11-20T07:35:43.597Z,6.75
2023-11-20T07:38:10.138Z,6.81
2023-11-20T07:40:36.694Z,7.02
2023-11-20T07:43:03.845Z,6.99
2023-11-20T07:45:30.458Z,6.98
2023-11-20T07:47:57.036Z,7.14
2023-11-20T07:50:23.570Z,7.14
2023-11-20T07:52:50.248Z,7.21
2023-11-20T07:55:16.878Z,7.34
2023-11-20T07:57:43.624Z,7.53
2023-11-20T08:00:13.917Z,7.64
2023-11-20T08:02:40.784Z,7.72
2023-11-20T08:05:10.098Z,7.72
2023-11-20T08:07:37.117Z,7.85
2023-11-20T08:10:06.697Z,8.03
2023-11-20T08:12:34.584Z,8.14
2023-11-20T08:15:01.356Z,8.20
2023-11-20T08:17:28.005Z,8.19
2023-11-20T08:19:54.596Z,8.36
2023-11-20T08:22:21.294Z,8.32
2023-11-20T08:24:48.057Z,8.46
2023-11-20T08:27:14.705Z,8.61
2023-11-20T08:29:41.216Z,8.70
2023-11-20T08:32:07.981Z,8.66
2023-11-20T08:34:35.301Z,8.92
2023-11-20T08:37:02.367Z,8.79
2023-11-20T08:39:33.580Z,8.68
2023-11-20T08:42:00.690Z,9.09
2023-11-20T08:44:28.091Z,9.28
2023-11-20T08:46:55.245Z,9.11
2023-11-20T08:49:22.171Z,9.43
2023-11-20T08:51:56.123Z,9.24
2023-11-20T08:54:28.742Z,9.21
2023-11-20T08:56:55.544Z,9.62
2023-11-20T08:59:22.297Z,9.80
2023-11-20T09:01:49.275Z,9.95
2023-11-20T09:04:17.056Z,9.93
2023-11-20T09:06:44.720Z,10.08
2023-11-20T09:09:14.613Z,10.16
2023-11-20T09:11:42.220Z,10.19
2023-11-20T09:14:09.878Z,10.37
2023-11-20T09:16:37.542Z,10.40
2023-11-20T09:19:04.311Z,10.48
2023-11-20T09:21:31.062Z,10.48
2023-11-20T09:23:58.908Z,10.34
2023-11-20T09:26:26.021Z,10.50
2023-11-20T09:28:52.710Z,10.93
2023-11-20T09:31:20.940Z,11.02
2023-11-20T09:33:48.876Z,11.02
2023-11-20T09:36:15.517Z,11.06
2023-11-20T09:38:42.107Z,11.19
2023-11-20T09:41:10.955Z,11.27
2023-11-20T09:43:39.264Z,11.31
2023-11-20T09:46:07.724Z,11.34
2023-11-20T09:48:35.157Z,11.49
2023-11-20T09:51:07.853Z,11.58
2023-11-20T09:53:40.205Z,11.62
2023-11-20T09:56:08.154Z,11.67
2023-11-20T09:58:35.428Z,11.69
2023-11-20T10:01:15.074Z,11.68
2023-11-20T10:03:43.413Z,11.79
2023-11-20T10:06:20.306Z,11.78
2023-11-20T10:08:49.797Z,11.87
2023-11-20T10:11:18.238Z,11.96
2023-11-20T10:13:45.106Z,11.98
2023-11-20T10:16:19.094Z,12.05
2023-11-20T10:18:46.031Z,11.99
2023-11-20T10:21:14.125Z,12.02
2023-11-20T10:23:42.175Z,12.07
2023-11-20T10:26:09.289Z,12.09
2023-11-20T10:28:40.316Z,12.17
2023-11-20T10:31:07.696Z,12.15
2023-11-20T10:33:34.882Z,12.24
2023-11-20T10:36:18.180Z,12.27
2023-11-20T10:38:45.805Z,12.29
2023-11-20T10:41:13.049Z,12.30
2023-11-20T10:43:41.659Z,12.27
2023-11-20T10:46:08.930Z,12.30
2023-11-20T10:48:38.287Z,12.34
2023-11-20T10:51:08.855Z,12.34
2023-11-20T10:53:43.246Z,12.38
2023-11-20T10:56:15.189Z,12.44
2023-11-20T10:58:45.012Z,12.44
2023-11-20T11:01:12.312Z,12.46
2023-11-20T11:03:39.365Z,12.53
2023-11-20T11:06:13.481Z,12.51
2023-11-20T11:08:46.798Z,12.68
2023-11-20T11:11:15.811Z,12.79
2023-11-20T11:13:44.551Z,12.87
2023-11-20T11:16:23.574Z,12.93
2023-11-20T11:19:01.480Z,12.91
2023-11-20T11:21:36.855Z,12.70
2023-11-20T11:24:07.393Z,12.75
2023-11-20T11:26:53.461Z,12.89
2023-11-20T11:29:26.313Z,12.74
2023-11-20T11:32:05.450Z,12.85
2023-11-20T11:34:44.273Z,12.89
2023-11-20T11:37:34.557Z,12.95
2023-11-20T11:40:26.480Z,12.94
2023-11-20T11:42:56.514Z,13.05
2023-11-20T11:45:29.033Z,13.10
2023-11-20T11:47:55.549Z,13.21
2023-11-20T11:50:22.408Z,13.25
2023-11-20T11:52:49.745Z,13.20
2023-11-20T11:55:23.362Z,13.32
2023-11-20T11:57:53.470Z,13.33
2023-11-20T12:00:23.759Z,13.40
2023-11-20T12:02:55.790Z,13.48
2023-11-20T12:05:23.514Z,13.60
2023-11-20T12:08:03.418Z,13.65
2023-11-20T12:10:43.659Z,13.79
2023-11-20T12:13:12.283Z,13.86
2023-11-20T12:15:41.005Z,14.00
2023-11-20T12:18:16.483Z,14.05
2023-11-20T12:21:02.489Z,14.14
2023-11-20T12:23:38.189Z,14.15
2023-11-20T12:26:11.073Z,14.18
2023-11-20T12:28:39.586Z,14.26
2023-11-20T12:31:08.772Z,14.28
2023-11-20T12:33:36.738Z,14.29
2023-11-20T12:36:04.020Z,14.31
2023-11-20T12:38:35.796Z,14.35
2023-11-20T12:41:06.590Z,14.35
2023-11-20T12:43:34.474Z,14.26
2023-11-20T12:46:08.349Z,14.25
2023-11-20T12:48:38.005Z,14.17
2023-11-20T12:51:07.625Z,14.18
2023-11-20T12:53:35.002Z,14.09
2023-11-20T12:56:05.408Z,14.16
2023-11-20T12:58:32.247Z,14.15
2023-11-20T13:01:01.064Z,14.16
2023-11-20T13:03:29.389Z,14.20
2023-11-20T13:05:57.095Z,14.21
2023-11-20T13:08:28.262Z,14.22
2023-11-20T13:10:56.598Z,14.26
2023-11-20T13:13:25.616Z,14.24
2023-11-20T13:15:57.380Z,14.26
2023-11-20T13:18:26.511Z,14.24
2023-11-20T13:20:55.000Z,14.17
2023-11-20T13:23:26.080Z,14.09
2023-11-20T13:26:13.811Z,14.07
2023-11-20T13:28:40.604Z,14.00
2023-11-20T13:31:09.535Z,14.06
2023-11-20T13:33:43.739Z,14.05
2023-11-20T13:36:11.748Z,14.05
2023-11-20T13:38:38.640Z,13.93
2023-11-20T13:41:08.744Z,13.93
2023-11-20T13:43:35.537Z,13.92
2023-11-20T13:46:02.472Z,13.87
2023-11-20T13:48:32.072Z,13.88
2023-11-20T13:50:59.752Z,13.92
2023-11-20T13:53:27.298Z,14.00
2023-11-20T13:55:55.858Z,14.08
2023-11-20T13:58:25.426Z,14.08
2023-11-20T14:00:53.674Z,14.19
2023-11-20T14:03:20.780Z,14.20
2023-11-20T14:05:48.805Z,14.29
2023-11-20T14:08:16.368Z,14.33
2023-11-20T14:10:46.016Z,14.39
2023-11-20T14:13:13.175Z,14.44
2023-11-20T14:15:39.724Z,14.50
2023-11-20T14:18:06.690Z,14.54
2023-11-20T14:20:35.074Z,14.57
2023-11-20T14:23:01.868Z,14.56
2023-11-20T14:25:32.516Z,14.61
2023-11-20T14:28:00.043Z,14.66
2023-11-20T14:30:26.585Z,14.70
2023-11-20T14:32:53.273Z,14.69
2023-11-20T14:35:20.439Z,14.64
2023-11-20T14:37:47.708Z,14.62
2023-11-20T14:40:17.323Z,14.49
2023-11-20T14:42:46.763Z,14.54
2023-11-20T14:45:15.419Z,14.46
2023-11-20T14:47:47.191Z,14.42
2023-11-20T14:50:16.334Z,14.35
2023-11-20T14:52:47.826Z,14.20
2023-11-20T14:55:14.711Z,14.06
2023-11-20T14:57:46.107Z,14.01
2023-11-20T15:00:15.938Z,13.97
2023-11-20T15:02:47.340Z,13.95
2023-11-20T15:05:16.493Z,13.93
2023-11-20T15:07:44.922Z,13.83
2023-11-20T15:10:14.720Z,13.92
2023-11-20T15:12:42.963Z,13.80
2023-11-20T15:15:13.675Z,13.81
2023-11-20T15:17:42.159Z,13.83
2023-11-20T15:20:15.018Z,13.77
2023-11-20T15:22:41.678Z,13.85
2023-11-20T15:25:09.251Z,13.84
2023-11-20T15:27:36.882Z,13.82
2023-11-20T15:30:07.405Z,13.68
2023-11-20T15:32:34.460Z,13.63
2023-11-20T15:35:01.058Z,13.61
2023-11-20T15:37:29.048Z,13.64
2023-11-20T15:39:55.562Z,13.72
2023-11-20T15:42:22.251Z,13.80
2023-11-20T15:44:48.705Z,13.89
2023-11-20T15:47:15.292Z,13.93
2023-11-20T15:49:41.817Z,13.95
2023-11-20T15:52:08.466Z,13.97
2023-11-20T15:54:35.745Z,14.04
2023-11-20T15:57:02.427Z,14.06
2023-11-20T15:59:30.890Z,14.09
2023-11-20T16:01:57.867Z,14.14
2023-11-20T16:04:24.657Z,14.22
2023-11-20T16:06:53.265Z,14.23
2023-11-20T16:09:21.708Z,14.30
2023-11-20T16:11:48.817Z,14.15
2023-11-20T16:14:15.815Z,14.07
2023-11-20T16:16:54.414Z,13.96
2023-11-20T16:19:22.767Z,13.57
2023-11-20T16:21:52.515Z,13.43
2023-11-20T16:24:19.589Z,13.39
2023-11-20T16:26:46.302Z,13.35
2023-11-20T16:29:13.838Z,13.34
2023-11-20T16:31:42.723Z,13.28
2023-11-20T16:34:09.574Z,13.14
2023-11-20T16:36:36.253Z,12.98
2023-11-20T16:39:02.841Z,12.87
2023-11-20T16:41:29.345Z,12.80
2023-11-20T16:43:55.941Z,12.80
2023-11-20T16:46:27.901Z,12.72
2023-11-20T16:48:56.493Z,12.73
2023-11-20T16:51:23.540Z,12.72
2023-11-20T16:53:50.548Z,12.67
2023-11-20T16:56:17.101Z,12.68
2023-11-20T16:58:45.120Z,12.67
2023-11-20T17:01:11.692Z,12.66
2023-11-20T17:03:38.392Z,12.49
2023-11-20T17:06:07.680Z,12.37
2023-11-20T17:08:36.741Z,12.28
2023-11-20T17:11:03.639Z,12.18
2023-11-20T17:13:30.657Z,12.18
2023-11-20T17:15:57.525Z,12.12
2023-11-20T17:18:24.132Z,11.91
2023-11-20T17:20:51.163Z,11.83
2023-11-20T17:23:17.768Z,11.77
2023-11-20T17:25:44.452Z,11.68
2023-11-20T17:28:11.138Z,11.56
2023-11-20T17:30:37.816Z,11.40
2023-11-20T17:33:04.491Z,11.25
2023-11-20T17:35:31.056Z,11.15
2023-11-20T17:37:57.573Z,11.21
2023-11-20T17:40:25.409Z,11.15
2023-11-20T17:42:52.448Z,11.18
2023-11-20T17:45:19.014Z,11.23
2023-11-20T17:47:45.772Z,11.26
2023-11-20T17:50:13.057Z,11.16
2023-11-20T17:52:40.076Z,11.08
2023-11-20T17:55:09.167Z,10.84
2023-11-20T17:57:39.920Z,10.72
2023-11-20T18:00:11.479Z,10.56
2023-11-20T18:02:38.273Z,10.37
2023-11-20T18:05:08.212Z,10.25
2023-11-20T18:07:35.246Z,10.22
2023-11-20T18:10:02.698Z,10.26
2023-11-20T18:12:29.560Z,10.32
2023-11-20T18:14:57.206Z,10.24
2023-11-20T18:17:25.302Z,10.36
2023-11-20T18:19:51.957Z,10.34
2023-11-20T18:22:19.127Z,10.39
2023-11-20T18:24:45.825Z,10.36
2023-11-20T18:27:13.130Z,10.26
2023-11-20T18:29:39.650Z,10.25
2023-11-20T18:32:06.691Z,10.07
2023-11-20T18:34:33.271Z,9.98
2023-11-20T18:37:01.972Z,9.99
2023-11-20T18:39:30.148Z,9.92
2023-11-20T18:41:56.964Z,9.88
2023-11-20T18:44:23.569Z,9.83
2023-11-20T18:46:51.649Z,9.62
2023-11-20T18:49:18.800Z,9.55
2023-11-20T18:51:45.381Z,9.43
2023-11-20T18:54:12.770Z,9.31
2023-11-20T18:56:39.440Z,9.20
2023-11-20T18:59:06.017Z,9.09
2023-11-20T19:01:32.671Z,8.97
2023-11-20T19:04:01.906Z,8.86
2023-11-20T19:06:28.751Z,8.84
2023-11-20T19:08:56.211Z,8.81
2023-11-20T19:11:23.271Z,8.78
2023-11-20T19:13:51.504Z,8.76
2023-11-20T19:16:18.414Z,8.81
2023-11-20T19:18:45.825Z,8.92
2023-11-20T19:21:14.557Z,8.97
2023-11-20T19:23:41.929Z,8.93
2023-11-20T19:26:11.384Z,8.86
2023-11-20T19:28:38.536Z,8.88
2023-11-20T19:31:07.573Z,8.83
2023-11-20T19:33:34.200Z,8.82
2023-11-20T19:36:00.806Z,8.75
2023-11-20T19:38:28.252Z,8.74
2023-11-20T19:40:54.820Z,8.54
2023-11-20T19:43:21.738Z,8.61
2023-11-20T19:45:48.403Z,8.69
2023-11-20T19:48:15.028Z,8.71
2023-11-20T19:50:42.484Z,8.68
2023-11-20T19:53:11.398Z,8.76
2023-11-20T19:55:38.260Z,8.78
2023-11-20T19:58:05.507Z,8.76
2023-11-20T20:00:33.608Z,8.63
2023-11-20T20:03:00.309Z,8.51
2023-11-20T20:05:26.897Z,8.40
2023-11-20T20:07:59.714Z,8.23
2023-11-20T20:10:26.389Z,8.18
2023-11-20T20:12:53.541Z,8.12
2023-11-20T20:15:20.131Z,8.12
2023-11-20T20:17:46.713Z,8.16
2023-11-20T20:20:13.501Z,8.23
2023-11-20T20:22:40.192Z,8.19
2023-11-20T20:25:07.052Z,8.20
2023-11-20T20:27:33.645Z,8.11
2023-11-20T20:30:00.347Z,8.04
2023-11-20T20:32:26.968Z,8.04
2023-11-20T20:34:53.540Z,8.01
2023-11-20T20:37:20.246Z,7.83
2023-11-20T20:39:48.035Z,7.65
2023-11-20T20:42:14.865Z,7.60
2023-11-20T20:44:42.913Z,7.57
2023-11-20T20:47:10.501Z,7.56
2023-11-20T20:49:41.186Z,7.64
2023-11-20T20:52:10.725Z,7.55
2023-11-20T20:54:40.436Z,7.37
2023-11-20T20:57:07.564Z,7.21
2023-11-20T20:59:35.234Z,7.26
2023-11-20T21:02:02.162Z,7.30
2023-11-20T21:04:29.606Z,7.27
2023-11-20T21:06:56.305Z,7.32
2023-11-20T21:09:25.422Z,7.44
2023-11-20T21:11:55.040Z,7.43
2023-11-20T21:14:24.786Z,7.39
2023-11-20T21:16:51.902Z,7.36
2023-11-20T21:19:18.629Z,7.23
2023-11-20T21:21:45.482Z,7.04
2023-11-20T21:24:13.753Z,7.03
2023-11-20T21:26:41.290Z,6.95
2023-11-20T21:29:10.205Z,6.92
2023-11-20T21:31:37.616Z,6.93
2023-11-20T21:34:05.044Z,6.97
2023-11-20T21:36:33.188Z,7.05
2023-11-20T21:39:00.334Z,7.14
2023-11-20T21:41:27.133Z,7.15
2023-11-20T21:43:54.155Z,7.22
2023-11-20T21:46:21.262Z,7.20
2023-11-20T21:48:48.055Z,7.19
2023-11-20T21:51:15.230Z,7.22
2023-11-20T21:53:42.137Z,7.15
2023-11-20T21:56:09.196Z,7.15
2023-11-20T21:58:36.281Z,7.12
2023-11-20T22:01:03.541Z,6.98
2023-11-20T22:03:30.210Z,6.91
2023-11-20T22:05:56.812Z,6.79
2023-11-20T22:08:24.033Z,6.78
2023-11-20T22:10:50.780Z,6.70
2023-11-20T22:13:18.480Z,6.69
2023-11-20T22:15:45.100Z,6.75
2023-11-20T22:18:11.657Z,6.74
2023-11-20T22:20:38.242Z,6.77
2023-11-20T22:23:04.769Z,6.75
2023-11-20T22:25:31.325Z,6.79
2023-11-20T22:27:58.254Z,6.84
2023-11-20T22:30:24.851Z,6.91
2023-11-20T22:32:51.444Z,6.96
2023-11-20T22:35:18.089Z,7.04
2023-11-20T22:37:45.198Z,7.21
2023-11-20T22:40:15.333Z,7.20
2023-11-20T22:42:42.606Z,7.18
2023-11-20T22:45:11.938Z,7.22
2023-11-20T22:47:38.710Z,7.29
2023-11-20T22:50:08.406Z,7.37
2023-11-20T22:52:36.153Z,7.40
2023-11-20T22:55:02.740Z,7.43
2023-11-20T22:57:29.244Z,7.43
2023-11-20T22:59:56.344Z,7.38
2023-11-20T23:02:24.048Z,7.27
2023-11-20T23:04:50.880Z,7.27
2023-11-20T23:07:17.586Z,7.29
2023-11-20T23:09:44.308Z,7.27
2023-11-20T23:12:10.833Z,7.19
2023-11-20T23:14:37.331Z,7.18
2023-11-20T23:17:03.935Z,7.14
2023-11-20T23:19:30.421Z,7.15
2023-11-20T23:21:56.905Z,7.16
2023-11-20T23:24:23.373Z,7.16
2023-11-20T23:26:49.973Z,7.16
2023-11-20T23:29:16.502Z,7.00
2023-11-20T23:31:43.200Z,7.00
2023-11-20T23:34:09.819Z,6.89
2023-11-20T23:36:36.348Z,6.69
2023-11-20T23:39:03.037Z,6.50
2023-11-20T23:41:30.080Z,6.36
2023-11-20T23:43:56.609Z,6.34
2023-11-20T23:46:23.228Z,6.37
2023-11-20T23:48:51.802Z,6.53
2023-11-20T23:51:18.624Z,6.55
2023-11-20T23:53:45.244Z,6.62
2023-11-20T23:56:11.828Z,6.68
2023-11-20T23:58:38.418Z,6.76
